Terminal Aerodrome Forecast
Issued by NWS Topeka, KS

Home | Current Version | Previous Version | Text Only | Print | Product List | Glossary On
Versions: 1 2 3 4 5 6 7 8 9 10 11 12 13 14 15 16 17 18 19 20 21 22 23 24 25 26
375
FTUS43 KTOP 192327
TAFTOP
TAF
KTOP 192327Z 2000/2024 16017G28KT P6SM FEW250
     FM200300 16015KT P6SM BKN200 WS020/20055KT
     FM201200 22010KT P6SM FEW150
     FM201800 31007KT P6SM SCT040=

USA.gov is the U.S. government's official web portal to all federal, state and local government web resources and services.